Ciili, Kazakhstan
Current Conditions -  °F | °C
As of 4:00 AM on Wednesday 26 Nov 2014 (Local Time) from UAOO Reporting Station
Clear Clear  
Wind Chill: -11°   Ceiling: Unl
Heat Index:   Visibility: 6mi
Dew Point: -4°   Wind: 7mph
Humidity: 78%   Direction: 30°NNE
Pressure: 30.62"   Gusts: NA
Location:  44.17°N, 66.75°E
Report Text: UAOO 252300Z 03003MPS CAVOK M17/M20 Q1037 NOSIG RMKQFE766/1021
Loading
Personal Weather Stations






























Interactive Weather Map New forecast layout! Learn more

10-Day Weather Forecast

Advertisements
Track Severe Weather on mobile